createdAt,value
2018-01-13T00:01:26.277Z,102669.98
2018-01-13T00:03:52.077Z,102670.56
2018-01-13T00:06:17.878Z,102670.57
2018-01-13T00:08:43.741Z,102680.25
2018-01-13T00:11:09.545Z,102676.30
2018-01-13T00:13:35.389Z,102679.05
2018-01-13T00:16:01.235Z,102680.12
2018-01-13T00:18:27.167Z,102676.13
2018-01-13T00:20:52.977Z,102676.88
2018-01-13T00:23:18.779Z,102666.97
2018-01-13T00:25:44.581Z,102675.77
2018-01-13T00:28:10.561Z,102671.22
2018-01-13T00:30:36.360Z,102677.45
2018-01-13T00:33:02.285Z,102679.09
2018-01-13T00:35:28.145Z,102676.20
2018-01-13T00:37:53.940Z,102681.68
2018-01-13T00:40:19.949Z,102685.42
2018-01-13T00:42:45.749Z,102689.34
2018-01-13T00:45:11.555Z,102681.72
2018-01-13T00:47:37.545Z,102684.13
2018-01-13T00:50:03.361Z,102684.59
2018-01-13T00:52:29.259Z,102688.16
2018-01-13T00:54:55.062Z,102695.48
2018-01-13T00:57:20.862Z,102695.70
2018-01-13T00:59:46.679Z,102694.03
2018-01-13T01:02:12.634Z,102700.44
2018-01-13T01:04:38.468Z,102702.61
2018-01-13T01:07:04.273Z,102705.14
2018-01-13T01:09:30.082Z,102699.73
2018-01-13T01:11:55.890Z,102699.59
2018-01-13T01:14:22.781Z,102703.53
2018-01-13T01:16:48.618Z,102703.36
2018-01-13T01:19:14.425Z,102700.20
2018-01-13T01:21:40.664Z,102698.41
2018-01-13T01:24:06.530Z,102700.22
2018-01-13T01:26:32.469Z,102697.80
2018-01-13T01:28:58.305Z,102700.61
2018-01-13T01:31:24.118Z,102697.19
2018-01-13T01:33:49.933Z,102703.31
2018-01-13T01:36:15.857Z,102697.37
2018-01-13T01:38:41.813Z,102699.22
2018-01-13T01:41:07.614Z,102701.66
2018-01-13T01:43:33.658Z,102700.13
2018-01-13T01:45:59.469Z,102704.42
2018-01-13T01:48:25.493Z,102710.87
2018-01-13T01:50:51.441Z,102710.08
2018-01-13T01:53:17.245Z,102713.39
2018-01-13T01:55:43.045Z,102708.02
2018-01-13T01:58:08.845Z,102707.77
2018-01-13T02:00:34.742Z,102703.32
2018-01-13T02:03:00.585Z,102707.03
2018-01-13T02:05:26.385Z,102705.78
2018-01-13T02:07:52.253Z,102708.30
2018-01-13T02:10:18.054Z,102706.74
2018-01-13T02:12:43.893Z,102715.04
2018-01-13T02:15:09.698Z,102712.58
2018-01-13T02:17:35.712Z,102709.30
2018-01-13T02:20:01.515Z,102718.23
2018-01-13T02:22:28.573Z,102709.38
2018-01-13T02:24:54.391Z,102714.54
2018-01-13T02:27:22.382Z,102706.84
2018-01-13T02:29:48.194Z,102711.80
2018-01-13T02:32:14.002Z,102709.38
2018-01-13T02:34:39.837Z,102705.95
2018-01-13T02:37:05.641Z,102712.83
2018-01-13T02:39:31.615Z,102705.57
2018-01-13T02:41:57.503Z,102702.58
2018-01-13T02:44:23.342Z,102706.91
2018-01-13T02:46:49.146Z,102696.96
2018-01-13T02:49:15.182Z,102699.62
2018-01-13T02:51:41.346Z,102689.56
2018-01-13T02:54:07.186Z,102696.59
2018-01-13T02:56:33.262Z,102695.42
2018-01-13T02:58:59.229Z,102695.53
2018-01-13T03:01:25.113Z,102694.73
2018-01-13T03:03:50.946Z,102696.74
2018-01-13T03:06:16.818Z,102696.41
2018-01-13T03:08:42.629Z,102699.97
2018-01-13T03:11:08.448Z,102701.33
2018-01-13T03:13:34.372Z,102698.09
2018-01-13T03:16:00.371Z,102694.70
2018-01-13T03:18:26.182Z,102691.91
2018-01-13T03:20:52.032Z,102700.44
2018-01-13T03:23:17.978Z,102693.96
2018-01-13T03:25:43.786Z,102694.89
2018-01-13T03:28:09.711Z,102692.44
2018-01-13T03:30:35.828Z,102693.61
2018-01-13T03:33:01.646Z,102687.95
2018-01-13T03:35:27.463Z,102687.58
2018-01-13T03:37:53.409Z,102687.55
2018-01-13T03:40:19.323Z,102687.62
2018-01-13T03:42:45.169Z,102681.30
2018-01-13T03:45:11.005Z,102680.69
2018-01-13T03:47:36.814Z,102689.30
2018-01-13T03:50:02.666Z,102689.20
2018-01-13T03:52:28.485Z,102687.63
2018-01-13T03:54:54.331Z,102688.48
2018-01-13T03:57:20.125Z,102687.63
2018-01-13T03:59:45.966Z,102682.61
2018-01-13T04:02:11.769Z,102682.00
2018-01-13T04:04:38.654Z,102683.42
2018-01-13T04:07:04.494Z,102683.11
2018-01-13T04:09:30.299Z,102684.19
2018-01-13T04:11:56.123Z,102684.83
2018-01-13T04:14:21.923Z,102687.87
2018-01-13T04:16:47.754Z,102684.50
2018-01-13T04:19:13.566Z,102687.37
2018-01-13T04:21:39.481Z,102687.95
2018-01-13T04:24:05.325Z,102686.84
2018-01-13T04:26:31.138Z,102682.64
2018-01-13T04:28:56.994Z,102684.68
2018-01-13T04:31:22.798Z,102682.72
2018-01-13T04:33:48.750Z,102685.61
2018-01-13T04:36:14.734Z,102681.63
2018-01-13T04:38:40.642Z,102684.01
2018-01-13T04:41:06.482Z,102682.29
2018-01-13T04:43:32.294Z,102680.30
2018-01-13T04:45:58.238Z,102682.86
2018-01-13T04:48:24.083Z,102685.36
2018-01-13T04:50:49.927Z,102681.30
2018-01-13T04:53:16.242Z,102677.94
2018-01-13T04:55:42.093Z,102684.11
2018-01-13T04:58:07.942Z,102689.56
2018-01-13T05:00:33.973Z,102682.02
2018-01-13T05:02:59.778Z,102692.72
2018-01-13T05:05:25.622Z,102688.16
2018-01-13T05:07:51.466Z,102688.90
2018-01-13T05:10:17.309Z,102688.51
2018-01-13T05:12:43.107Z,102698.38
2018-01-13T05:15:08.999Z,102696.48
2018-01-13T05:17:34.978Z,102701.05
2018-01-13T05:20:00.927Z,102703.89
2018-01-13T05:22:26.734Z,102698.41
2018-01-13T05:24:52.542Z,102699.80
2018-01-13T05:27:18.513Z,102705.89
2018-01-13T05:29:44.326Z,102700.27
2018-01-13T05:32:10.130Z,102704.83
2018-01-13T05:34:36.033Z,102703.02
2018-01-13T05:37:01.842Z,102703.16
2018-01-13T05:39:27.686Z,102703.36
2018-01-13T05:41:53.485Z,102707.30
2018-01-13T05:44:19.334Z,102699.23
2018-01-13T05:46:45.141Z,102701.22
2018-01-13T05:49:10.994Z,102707.06
2018-01-13T05:51:36.805Z,102703.03
2018-01-13T05:54:02.690Z,102700.77
2018-01-13T05:56:28.495Z,102706.89
2018-01-13T05:58:54.309Z,102703.17
2018-01-13T06:01:20.131Z,102703.00
2018-01-13T06:03:45.937Z,102707.81
2018-01-13T06:08:57.170Z,102714.72
2018-01-13T06:11:23.098Z,102712.33
2018-01-13T06:13:48.901Z,102709.38
2018-01-13T06:16:14.893Z,102712.66
2018-01-13T06:18:40.705Z,102708.06
2018-01-13T06:21:06.552Z,102706.95
2018-01-13T06:23:32.493Z,102705.18
2018-01-13T06:25:58.314Z,102707.38
2018-01-13T06:28:24.250Z,102702.79
2018-01-13T06:30:50.057Z,102708.56
2018-01-13T06:33:15.853Z,102710.56
2018-01-13T06:35:41.657Z,102708.89
2018-01-13T06:38:07.503Z,102708.81
2018-01-13T06:40:33.307Z,102709.74
2018-01-13T06:42:59.158Z,102699.77
2018-01-13T06:45:24.969Z,102710.13
2018-01-13T06:47:50.777Z,102704.11
2018-01-13T06:50:16.721Z,102701.02
2018-01-13T06:52:42.531Z,102710.23
2018-01-13T06:55:08.393Z,102709.56
2018-01-13T06:57:34.201Z,102703.68
2018-01-13T07:00:00.024Z,102713.52
2018-01-13T07:02:25.854Z,102717.03
2018-01-13T07:04:51.867Z,102717.38
2018-01-13T07:07:17.665Z,102715.82
2018-01-13T07:09:43.475Z,102715.15
2018-01-13T07:12:09.297Z,102729.67
2018-01-13T07:14:35.118Z,102722.34
2018-01-13T07:17:00.987Z,102727.64
2018-01-13T07:19:26.959Z,102727.57
2018-01-13T07:21:52.804Z,102729.35
2018-01-13T07:24:18.646Z,102735.22
2018-01-13T07:26:44.494Z,102730.45
2018-01-13T07:29:10.462Z,102734.05
2018-01-13T07:31:36.310Z,102741.20
2018-01-13T07:34:02.373Z,102743.48
2018-01-13T07:36:28.382Z,102748.47
2018-01-13T07:38:54.368Z,102748.22
2018-01-13T07:41:20.314Z,102746.58
2018-01-13T07:43:46.162Z,102755.73
2018-01-13T07:46:11.970Z,102751.84
2018-01-13T07:48:37.815Z,102756.83
2018-01-13T07:51:03.790Z,102754.27
2018-01-13T07:53:29.638Z,102755.73
2018-01-13T07:55:55.486Z,102749.36
2018-01-13T07:58:21.289Z,102749.42
2018-01-13T08:00:47.286Z,102750.74
2018-01-13T08:03:13.094Z,102749.39
2018-01-13T08:05:38.927Z,102751.45
2018-01-13T08:08:04.914Z,102749.57
2018-01-13T08:10:30.909Z,102752.59
2018-01-13T08:12:56.720Z,102746.90
2018-01-13T08:15:22.582Z,102740.50
2018-01-13T08:17:48.546Z,102751.51
2018-01-13T08:20:14.362Z,102748.16
2018-01-13T08:22:40.223Z,102759.93
2018-01-13T08:25:06.041Z,102754.98
2018-01-13T08:27:31.906Z,102760.98
2018-01-13T08:29:57.726Z,102762.17
2018-01-13T08:32:23.581Z,102763.14
2018-01-13T08:34:49.534Z,102761.74
2018-01-13T08:37:15.383Z,102767.28
2018-01-13T08:39:41.247Z,102770.61
2018-01-13T08:42:07.103Z,102769.07
2018-01-13T08:44:32.910Z,102773.02
2018-01-13T08:46:58.730Z,102775.03
2018-01-13T08:49:24.549Z,102772.49
2018-01-13T08:51:50.493Z,102766.14
2018-01-13T08:54:16.303Z,102769.70
2018-01-13T08:56:42.116Z,102765.65
2018-01-13T08:59:08.058Z,102771.86
2018-01-13T09:01:34.905Z,102768.67
2018-01-13T09:04:00.730Z,102770.98
2018-01-13T09:06:26.612Z,102768.17
2018-01-13T09:08:52.427Z,102762.48
2018-01-13T09:11:18.224Z,102764.66
2018-01-13T09:13:44.197Z,102772.23
2018-01-13T09:16:10.046Z,102770.70
2018-01-13T09:18:35.957Z,102779.86
2018-01-13T09:21:01.858Z,102779.30
2018-01-13T09:23:27.730Z,102773.80
2018-01-13T09:25:53.561Z,102780.38
2018-01-13T09:28:20.473Z,102777.09
2018-01-13T09:30:46.289Z,102783.02
2018-01-13T09:33:12.146Z,102774.89
2018-01-13T09:35:37.954Z,102776.92
2018-01-13T09:38:03.807Z,102783.34
2018-01-13T09:40:29.671Z,102788.77
2018-01-13T09:42:55.485Z,102775.28
2018-01-13T09:45:21.321Z,102786.57
2018-01-13T09:47:47.199Z,102783.19
2018-01-13T09:50:13.003Z,102780.31
2018-01-13T09:52:38.829Z,102787.03
2018-01-13T09:55:04.754Z,102781.10
2018-01-13T09:57:30.553Z,102775.97
2018-01-13T09:59:56.410Z,102778.64
2018-01-13T10:02:22.219Z,102776.67
2018-01-13T10:04:48.146Z,102776.31
2018-01-13T10:07:13.958Z,102781.17
2018-01-13T10:09:39.877Z,102772.84
2018-01-13T10:12:05.714Z,102771.10
2018-01-13T10:14:31.628Z,102767.48
2018-01-13T10:16:57.454Z,102763.44
2018-01-13T10:19:23.484Z,102769.11
2018-01-13T10:21:49.361Z,102763.20
2018-01-13T10:24:15.165Z,102766.40
2018-01-13T10:26:41.138Z,102766.98
2018-01-13T10:29:06.952Z,102764.48
2018-01-13T10:31:32.807Z,102758.63
2018-01-13T10:33:58.834Z,102752.81
2018-01-13T10:36:24.655Z,102755.66
2018-01-13T10:38:50.458Z,102746.50
2018-01-13T10:41:16.259Z,102747.00
2018-01-13T10:43:42.178Z,102741.19
2018-01-13T10:46:07.988Z,102740.57
2018-01-13T10:48:33.841Z,102737.64
2018-01-13T10:50:59.658Z,102737.98
2018-01-13T10:53:25.534Z,102736.14
2018-01-13T10:55:51.341Z,102735.67
2018-01-13T10:58:17.373Z,102739.55
2018-01-13T11:00:43.181Z,102740.66
2018-01-13T11:03:09.021Z,102735.10
2018-01-13T11:05:34.969Z,102734.31
2018-01-13T11:08:00.814Z,102728.69
2018-01-13T11:10:26.813Z,102731.53
2018-01-13T11:12:52.655Z,102724.74
2018-01-13T11:15:18.466Z,102728.44
2018-01-13T11:17:44.405Z,102729.55
2018-01-13T11:20:10.284Z,102726.92
2018-01-13T11:22:36.123Z,102721.94
2018-01-13T11:25:02.038Z,102710.01
2018-01-13T11:27:27.879Z,102706.39
2018-01-13T11:29:53.906Z,102708.44
2018-01-13T11:32:19.709Z,102713.25
2018-01-13T11:34:45.622Z,102699.73
2018-01-13T11:37:11.431Z,102699.27
2018-01-13T11:39:37.398Z,102700.09
2018-01-13T11:42:03.562Z,102703.98
2018-01-13T11:44:29.370Z,102695.58
2018-01-13T11:46:55.178Z,102691.70
2018-01-13T11:49:21.046Z,102694.80
2018-01-13T11:51:46.846Z,102696.13
2018-01-13T11:54:12.682Z,102697.49
2018-01-13T11:56:38.496Z,102700.38
2018-01-13T11:59:04.366Z,102700.13
2018-01-13T12:01:30.197Z,102701.41
2018-01-13T12:03:56.049Z,102701.41
2018-01-13T12:06:21.859Z,102700.87
2018-01-13T12:08:47.670Z,102703.12
2018-01-13T12:11:13.474Z,102702.45
2018-01-13T12:13:39.286Z,102706.92
2018-01-13T12:16:05.212Z,102703.47
2018-01-13T12:18:31.062Z,102690.87
2018-01-13T12:20:57.014Z,102702.50
2018-01-13T12:23:22.951Z,102694.01
2018-01-13T12:25:48.985Z,102692.20
2018-01-13T12:28:14.794Z,102695.82
2018-01-13T12:30:40.638Z,102688.84
2018-01-13T12:33:06.530Z,102695.86
2018-01-13T12:35:32.336Z,102692.77
2018-01-13T12:37:58.138Z,102683.94
2018-01-13T12:40:23.990Z,102686.86
2018-01-13T12:42:49.853Z,102689.14
2018-01-13T12:45:15.711Z,102686.67
2018-01-13T12:47:41.517Z,102679.85
2018-01-13T12:50:07.324Z,102689.14
2018-01-13T12:52:33.150Z,102682.20
2018-01-13T12:54:58.978Z,102676.33
2018-01-13T12:57:24.789Z,102679.06
2018-01-13T12:59:50.646Z,102673.13
2018-01-13T13:02:16.722Z,102672.52
2018-01-13T13:04:42.537Z,102667.26
2018-01-13T13:07:08.341Z,102665.09
2018-01-13T13:09:34.342Z,102662.31
2018-01-13T13:12:00.154Z,102660.78
2018-01-13T13:14:25.963Z,102657.08
2018-01-13T13:16:51.767Z,102646.38
2018-01-13T13:19:17.714Z,102645.02
2018-01-13T13:21:43.570Z,102648.83
2018-01-13T13:24:09.370Z,102648.55
2018-01-13T13:26:35.382Z,102647.34
2018-01-13T13:29:01.235Z,102645.12
2018-01-13T13:31:27.046Z,102647.83
2018-01-13T13:33:52.892Z,102648.86
2018-01-13T13:36:18.738Z,102649.72
2018-01-13T13:38:44.549Z,102642.84
2018-01-13T13:41:10.566Z,102641.61
2018-01-13T13:43:36.590Z,102639.80
2018-01-13T13:46:02.459Z,102632.29
2018-01-13T13:48:28.266Z,102639.66
2018-01-13T13:50:54.079Z,102643.78
2018-01-13T13:53:19.974Z,102644.73
2018-01-13T13:55:45.773Z,102644.06
2018-01-13T13:58:11.762Z,102643.53
2018-01-13T14:00:37.677Z,102638.66
2018-01-13T14:03:03.601Z,102650.93
2018-01-13T14:05:29.465Z,102639.72
2018-01-13T14:07:55.271Z,102641.86
2018-01-13T14:10:21.126Z,102646.95
2018-01-13T14:12:46.978Z,102644.28
2018-01-13T14:15:12.796Z,102639.97
2018-01-13T14:17:38.611Z,102639.02
2018-01-13T14:20:04.463Z,102634.64
2018-01-13T14:22:30.322Z,102635.45
2018-01-13T14:24:56.130Z,102629.80
2018-01-13T14:27:21.943Z,102630.94
2018-01-13T14:29:47.755Z,102635.53
2018-01-13T14:32:13.578Z,102638.16
2018-01-13T14:34:39.430Z,102636.59
2018-01-13T14:37:05.243Z,102626.39
2018-01-13T14:39:31.100Z,102631.80
2018-01-13T14:41:57.216Z,102623.31
2018-01-13T14:44:23.089Z,102627.56
2018-01-13T14:46:48.899Z,102628.84
2018-01-13T14:49:14.830Z,102630.63
2018-01-13T14:51:40.646Z,102627.48
2018-01-13T14:54:07.145Z,102628.38
2018-01-13T14:56:33.067Z,102627.38
2018-01-13T14:58:58.990Z,102622.23
2018-01-13T15:01:24.922Z,102627.98
2018-01-13T15:03:50.999Z,102631.08
2018-01-13T15:06:17.095Z,102626.98
2018-01-13T15:08:43.030Z,102624.19
2018-01-13T15:11:08.841Z,102625.06
2018-01-13T15:13:34.747Z,102635.38
2018-01-13T15:16:00.763Z,102630.58
2018-01-13T15:18:26.614Z,102625.85
2018-01-13T15:20:52.476Z,102626.42
2018-01-13T15:23:18.418Z,102625.11
2018-01-13T15:25:44.226Z,102634.25
2018-01-13T15:28:10.148Z,102632.55
2018-01-13T15:30:35.950Z,102633.30
2018-01-13T15:33:01.798Z,102633.66
2018-01-13T15:35:27.617Z,102636.94
2018-01-13T15:37:53.549Z,102630.34
2018-01-13T15:40:19.354Z,102633.24
2018-01-13T15:42:45.230Z,102635.41
2018-01-13T15:45:11.208Z,102636.02
2018-01-13T15:47:37.350Z,102641.06
2018-01-13T15:50:03.204Z,102642.38
2018-01-13T15:52:29.018Z,102638.80
2018-01-13T15:54:54.941Z,102642.10
2018-01-13T15:57:20.759Z,102638.05
2018-01-13T15:59:46.566Z,102651.60
2018-01-13T16:02:12.381Z,102650.25
2018-01-13T16:04:38.239Z,102649.53
2018-01-13T16:07:04.095Z,102656.17
2018-01-13T16:09:29.901Z,102660.28
2018-01-13T16:11:55.757Z,102660.34
2018-01-13T16:14:21.570Z,102659.81
2018-01-13T16:16:47.519Z,102658.89
2018-01-13T16:19:13.325Z,102662.83
2018-01-13T16:21:39.195Z,102665.15
2018-01-13T16:24:04.998Z,102678.72
2018-01-13T16:26:30.857Z,102670.53
2018-01-13T16:28:56.664Z,102664.19
2018-01-13T16:31:22.468Z,102671.19
2018-01-13T16:33:48.279Z,102673.16
2018-01-13T16:36:14.090Z,102668.48
2018-01-13T16:38:39.902Z,102671.29
2018-01-13T16:41:05.713Z,102668.37
2018-01-13T16:43:31.602Z,102676.55
2018-01-13T16:45:57.414Z,102665.22
2018-01-13T16:48:23.222Z,102669.42
2018-01-13T16:50:49.030Z,102663.43
2018-01-13T16:53:14.881Z,102663.89
2018-01-13T16:55:40.695Z,102666.03
2018-01-13T16:58:06.510Z,102666.95
2018-01-13T17:00:32.322Z,102671.95
2018-01-13T17:02:58.134Z,102679.45
2018-01-13T17:05:23.943Z,102675.92
2018-01-13T17:07:49.762Z,102679.94
2018-01-13T17:10:15.615Z,102683.48
2018-01-13T17:12:41.425Z,102681.29
2018-01-13T17:15:07.240Z,102679.52
2018-01-13T17:17:33.050Z,102674.62
2018-01-13T17:19:58.866Z,102668.63
2018-01-13T17:22:24.683Z,102662.50
2018-01-13T17:24:50.506Z,102659.56
2018-01-13T17:27:16.386Z,102660.64
2018-01-13T17:29:42.345Z,102661.99
2018-01-13T17:32:08.154Z,102661.44
2018-01-13T17:34:34.033Z,102662.35
2018-01-13T17:36:59.862Z,102661.16
2018-01-13T17:39:25.686Z,102664.86
2018-01-13T17:41:51.538Z,102656.22
2018-01-13T17:44:17.546Z,102660.27
2018-01-13T17:46:43.421Z,102663.47
2018-01-13T17:49:09.278Z,102659.27
2018-01-13T17:51:35.090Z,102662.44
2018-01-13T17:54:00.902Z,102663.55
2018-01-13T17:56:26.769Z,102661.98
2018-01-13T17:58:52.581Z,102669.55
2018-01-13T18:01:18.441Z,102667.48
2018-01-13T18:03:44.256Z,102659.19
2018-01-13T18:06:10.123Z,102663.00
2018-01-13T18:08:35.926Z,102656.92
2018-01-13T18:11:01.791Z,102668.20
2018-01-13T18:13:27.658Z,102677.53
2018-01-13T18:15:53.534Z,102670.33
2018-01-13T18:18:19.338Z,102673.65
2018-01-13T18:20:45.189Z,102681.58
2018-01-13T18:23:11.038Z,102682.69
2018-01-13T18:25:36.847Z,102679.02
2018-01-13T18:28:02.669Z,102688.52
2018-01-13T18:30:28.486Z,102673.45
2018-01-13T18:32:54.294Z,102684.31
2018-01-13T18:35:20.278Z,102686.45
2018-01-13T18:37:46.314Z,102681.45
2018-01-13T18:40:12.124Z,102681.45
2018-01-13T18:42:38.050Z,102679.16
2018-01-13T18:45:03.981Z,102670.90
2018-01-13T18:47:29.840Z,102676.02
2018-01-13T18:49:55.811Z,102665.86
2018-01-13T18:52:21.625Z,102665.33
2018-01-13T18:54:47.446Z,102669.05
2018-01-13T18:57:13.335Z,102657.92
2018-01-13T18:59:39.169Z,102665.50
2018-01-13T19:02:04.990Z,102666.48
2018-01-13T19:04:30.858Z,102657.14
2018-01-13T19:06:56.790Z,102662.55
2018-01-13T19:09:22.647Z,102669.91
2018-01-13T19:11:48.466Z,102663.19
2018-01-13T19:14:14.542Z,102663.62
2018-01-13T19:16:40.546Z,102659.48
2018-01-13T19:19:06.457Z,102657.64
2018-01-13T19:21:32.310Z,102659.80
2018-01-13T19:23:58.187Z,102657.45
2018-01-13T19:26:24.106Z,102657.92
2018-01-13T19:28:50.179Z,102657.39
2018-01-13T19:31:16.198Z,102659.59
2018-01-13T19:33:42.018Z,102657.11
2018-01-13T19:36:07.842Z,102654.78
2018-01-13T19:38:33.695Z,102655.28
2018-01-13T19:40:59.558Z,102661.05
2018-01-13T19:43:25.383Z,102653.41
2018-01-13T19:45:51.259Z,102652.20
2018-01-13T19:48:17.263Z,102662.98
2018-01-13T19:50:43.074Z,102656.08
2018-01-13T19:53:09.042Z,102653.13
2018-01-13T19:55:34.955Z,102654.52
2018-01-13T19:58:00.887Z,102653.98
2018-01-13T20:00:26.703Z,102654.69
2018-01-13T20:02:52.522Z,102645.95
2018-01-13T20:05:18.334Z,102642.74
2018-01-13T20:07:44.150Z,102631.12
2018-01-13T20:10:10.035Z,102636.02
2018-01-13T20:12:35.859Z,102638.30
2018-01-13T20:15:01.847Z,102639.11
2018-01-13T20:17:27.675Z,102644.20
2018-01-13T20:19:54.648Z,102634.95
2018-01-13T20:22:20.468Z,102631.93
2018-01-13T20:24:47.264Z,102612.05
2018-01-13T20:27:13.195Z,102618.84
2018-01-13T20:29:39.145Z,102621.12
2018-01-13T20:32:04.994Z,102611.38
2018-01-13T20:34:30.931Z,102614.61
2018-01-13T20:36:56.917Z,102612.05
2018-01-13T20:39:22.807Z,102610.70
2018-01-13T20:41:48.743Z,102601.49
2018-01-13T20:44:14.607Z,102584.17
2018-01-13T20:46:40.486Z,102585.16
2018-01-13T20:49:06.414Z,102592.17
2018-01-13T20:51:32.366Z,102587.16
2018-01-13T20:53:58.306Z,102596.02
2018-01-13T20:56:24.295Z,102595.02
2018-01-13T20:58:50.316Z,102598.90
2018-01-13T21:01:16.150Z,102587.09
2018-01-13T21:03:43.813Z,102591.72
2018-01-13T21:06:09.795Z,102581.19
2018-01-13T21:08:35.658Z,102584.53
2018-01-13T21:11:01.635Z,102579.09
2018-01-13T21:13:27.511Z,102572.33
2018-01-13T21:15:55.564Z,102578.23
2018-01-13T21:18:22.660Z,102570.05
2018-01-13T21:20:49.418Z,102570.23
2018-01-13T21:23:15.284Z,102564.69
2018-01-13T21:25:41.195Z,102560.67
2018-01-13T21:28:07.191Z,102563.83
2018-01-13T21:30:33.078Z,102568.67
2018-01-13T21:32:58.922Z,102561.23
2018-01-13T21:35:24.799Z,102565.12
2018-01-13T21:37:50.651Z,102570.48
2018-01-13T21:40:16.503Z,102570.38
2018-01-13T21:42:42.366Z,102558.04
2018-01-13T21:45:08.328Z,102568.67
2018-01-13T21:47:34.174Z,102556.83
2018-01-13T21:50:00.005Z,102569.03
2018-01-13T21:52:25.824Z,102567.89
2018-01-13T21:54:51.707Z,102567.32
2018-01-13T21:57:17.578Z,102558.83
2018-01-13T21:59:43.401Z,102555.95
2018-01-13T22:02:09.269Z,102565.30
2018-01-13T22:04:35.163Z,102568.95
2018-01-13T22:07:01.110Z,102565.33
2018-01-13T22:09:27.040Z,102566.97
2018-01-13T22:11:53.094Z,102564.38
2018-01-13T22:14:19.084Z,102564.09
2018-01-13T22:16:44.925Z,102568.06
2018-01-13T22:19:10.932Z,102561.13
2018-01-13T22:21:37.010Z,102549.72
2018-01-13T22:24:02.859Z,102550.08
2018-01-13T22:26:28.842Z,102549.55
2018-01-13T22:28:54.663Z,102549.97
2018-01-13T22:31:20.670Z,102553.98
2018-01-13T22:33:46.636Z,102557.29
2018-01-13T22:36:12.637Z,102552.42
2018-01-13T22:38:38.454Z,102550.50
2018-01-13T22:41:04.274Z,102561.17
2018-01-13T22:43:30.086Z,102551.00
2018-01-13T22:45:55.910Z,102557.01
2018-01-13T22:48:21.779Z,102552.06
2018-01-13T22:50:47.645Z,102550.14
2018-01-13T22:53:13.518Z,102544.98
2018-01-13T22:55:39.342Z,102546.52
2018-01-13T22:58:05.203Z,102538.64
2018-01-13T23:00:32.127Z,102540.38
2018-01-13T23:02:57.947Z,102526.30
2018-01-13T23:05:23.763Z,102530.66
2018-01-13T23:07:49.587Z,102525.75
2018-01-13T23:10:15.427Z,102528.37
2018-01-13T23:12:41.387Z,102533.71
2018-01-13T23:15:07.203Z,102529.23
2018-01-13T23:17:33.038Z,102538.48
2018-01-13T23:19:58.858Z,102533.36
2018-01-13T23:22:24.710Z,102531.69
2018-01-13T23:24:50.526Z,102531.47
2018-01-13T23:27:21.226Z,102524.92
2018-01-13T23:29:47.050Z,102525.92
2018-01-13T23:32:12.915Z,102528.73
2018-01-13T23:34:38.738Z,102531.27
2018-01-13T23:37:05.518Z,102529.56
2018-01-13T23:39:31.337Z,102525.92
2018-01-13T23:41:57.159Z,102525.05
2018-01-13T23:44:23.014Z,102518.30
2018-01-13T23:46:48.851Z,102524.05
2018-01-13T23:49:14.944Z,102526.97
2018-01-13T23:51:40.767Z,102525.02
2018-01-13T23:54:06.713Z,102522.81
2018-01-13T23:56:32.531Z,102528.11
2018-01-13T23:58:58.354Z,102523.23
